createdAt,value
2022-11-24T00:01:28.848Z,53.70
2022-11-24T00:04:05.860Z,53.00
2022-11-24T00:06:35.873Z,53.20
2022-11-24T00:09:05.172Z,55.90
2022-11-24T00:11:35.659Z,53.10
2022-11-24T00:14:05.708Z,54.10
2022-11-24T00:16:36.172Z,53.80
2022-11-24T00:19:08.121Z,55.10
2022-11-24T00:21:37.225Z,53.40
2022-11-24T00:24:06.421Z,52.30
2022-11-24T00:26:37.439Z,52.30
2022-11-24T00:29:07.931Z,54.60
2022-11-24T00:31:41.545Z,53.50
2022-11-24T00:34:14.815Z,53.60
2022-11-24T00:36:43.156Z,50.30
2022-11-24T00:39:15.838Z,54.00
2022-11-24T00:41:44.627Z,54.10
2022-11-24T00:44:12.595Z,52.60
2022-11-24T00:46:41.093Z,50.50
2022-11-24T00:49:09.554Z,53.20
2022-11-24T00:51:37.536Z,52.10
2022-11-24T00:54:06.466Z,53.90
2022-11-24T00:56:34.933Z,52.40
2022-11-24T00:59:03.243Z,53.00
2022-11-24T01:01:31.664Z,52.80
2022-11-24T01:04:03.790Z,54.60
2022-11-24T01:06:33.160Z,53.30
2022-11-24T01:09:01.717Z,52.20
2022-11-24T01:11:51.411Z,52.90
2022-11-24T01:14:20.162Z,54.20
2022-11-24T01:16:48.876Z,55.20
2022-11-24T01:19:16.950Z,50.90
2022-11-24T01:21:44.888Z,53.90
2022-11-24T01:24:13.977Z,55.00
2022-11-24T01:26:42.538Z,56.50
2022-11-24T01:29:12.192Z,52.80
2022-11-24T01:31:40.956Z,52.70
2022-11-24T01:34:08.947Z,53.30
2022-11-24T01:36:36.964Z,55.40
2022-11-24T01:39:05.163Z,57.70
2022-11-24T01:41:36.420Z,52.40
2022-11-24T01:44:28.552Z,54.20
2022-11-24T01:47:08.321Z,55.80
2022-11-24T01:49:36.206Z,58.40
2022-11-24T01:52:07.055Z,56.20
2022-11-24T01:54:41.607Z,54.20
2022-11-24T01:57:19.285Z,56.20
2022-11-24T01:59:50.183Z,57.20
2022-11-24T02:02:21.106Z,57.50
2022-11-24T02:04:51.012Z,56.40
2022-11-24T02:07:19.149Z,57.60
2022-11-24T02:09:54.090Z,58.30
2022-11-24T02:12:24.367Z,60.90
2022-11-24T02:14:53.948Z,60.30
2022-11-24T02:17:22.503Z,56.40
2022-11-24T02:19:59.856Z,60.20
2022-11-24T02:22:51.669Z,59.90
2022-11-24T02:25:25.781Z,62.80
2022-11-24T02:27:56.102Z,58.30
2022-11-24T02:30:24.631Z,60.60
2022-11-24T02:32:52.828Z,61.00
2022-11-24T02:35:21.271Z,62.60
2022-11-24T02:37:49.301Z,62.90
2022-11-24T02:40:25.107Z,59.90
2022-11-24T02:42:58.101Z,61.20
2022-11-24T02:45:27.482Z,59.70
2022-11-24T02:47:55.459Z,62.10
2022-11-24T02:50:23.412Z,61.40
2022-11-24T02:52:51.623Z,59.50
2022-11-24T02:55:20.380Z,60.70
2022-11-24T02:57:48.376Z,59.50
2022-11-24T03:00:16.944Z,61.00
2022-11-24T03:02:45.002Z,57.50
2022-11-24T03:05:13.526Z,58.40
2022-11-24T03:07:41.715Z,60.80
2022-11-24T03:10:09.782Z,62.00
2022-11-24T03:12:37.776Z,58.20
2022-11-24T03:15:06.811Z,61.20
2022-11-24T03:17:37.346Z,60.00
2022-11-24T03:20:05.666Z,61.40
2022-11-24T03:22:33.755Z,62.90
2022-11-24T03:25:01.752Z,60.00
2022-11-24T03:27:31.186Z,60.20
2022-11-24T03:29:59.206Z,61.60
2022-11-24T03:32:27.254Z,62.70
2022-11-24T03:34:55.348Z,61.00
2022-11-24T03:37:23.411Z,59.90
2022-11-24T03:39:51.444Z,61.70
2022-11-24T03:42:19.474Z,62.00
2022-11-24T03:44:47.467Z,63.40
2022-11-24T03:47:15.338Z,61.10
2022-11-24T03:49:43.309Z,60.10
2022-11-24T03:52:11.360Z,61.70
2022-11-24T03:54:39.262Z,61.10
2022-11-24T03:57:07.204Z,61.20
2022-11-24T03:59:35.246Z,58.50
2022-11-24T04:02:03.198Z,60.30
2022-11-24T04:04:31.270Z,58.90
2022-11-24T04:06:59.154Z,59.40
2022-11-24T04:09:27.280Z,57.90
2022-11-24T04:12:13.877Z,57.40
2022-11-24T04:14:41.760Z,59.60
2022-11-24T04:17:09.678Z,61.00
2022-11-24T04:19:37.677Z,61.00
2022-11-24T04:22:05.555Z,57.70
2022-11-24T04:24:33.670Z,59.40
2022-11-24T04:27:01.856Z,61.80
2022-11-24T04:29:29.757Z,62.60
2022-11-24T04:31:57.881Z,59.30
2022-11-24T04:34:25.887Z,59.20
2022-11-24T04:36:53.816Z,60.00
2022-11-24T04:39:26.454Z,61.60
2022-11-24T04:41:56.844Z,63.10
2022-11-24T04:44:24.924Z,55.70
2022-11-24T04:46:52.919Z,58.70
2022-11-24T04:49:21.016Z,60.60
2022-11-24T04:51:48.909Z,58.40
2022-11-24T04:54:19.243Z,60.20
2022-11-24T04:56:50.736Z,57.70
2022-11-24T04:59:19.665Z,58.60
2022-11-24T05:01:47.804Z,60.00
2022-11-24T05:04:16.181Z,60.10
2022-11-24T05:06:44.248Z,57.60
2022-11-24T05:09:17.286Z,53.40
2022-11-24T05:11:45.882Z,58.60
2022-11-24T05:14:14.314Z,58.90
2022-11-24T05:16:42.323Z,59.20
2022-11-24T05:19:10.911Z,57.80
2022-11-24T05:21:39.237Z,58.80
2022-11-24T05:24:07.622Z,60.30
2022-11-24T05:26:35.754Z,61.60
2022-11-24T05:29:03.966Z,60.40
2022-11-24T05:31:31.977Z,52.00
2022-11-24T05:33:59.897Z,51.80
2022-11-24T05:36:46.814Z,53.20
2022-11-24T05:39:15.986Z,58.60
2022-11-24T05:41:44.553Z,59.40
2022-11-24T05:44:12.634Z,57.20
2022-11-24T05:46:41.459Z,57.80
2022-11-24T05:49:09.562Z,58.80
2022-11-24T05:51:38.408Z,58.60
2022-11-24T05:54:06.667Z,57.60
2022-11-24T05:59:19.947Z,61.40
2022-11-24T06:01:48.320Z,58.20
2022-11-24T06:04:16.519Z,50.30
2022-11-24T06:06:46.506Z,53.00
2022-11-24T06:09:14.692Z,53.40
2022-11-24T06:11:43.286Z,56.70
2022-11-24T06:14:11.781Z,59.80
2022-11-24T06:16:40.463Z,55.80
2022-11-24T06:19:10.268Z,57.80
2022-11-24T06:21:38.228Z,59.60
2022-11-24T06:24:06.604Z,60.70
2022-11-24T06:26:34.486Z,59.60
2022-11-24T06:29:02.383Z,56.70
2022-11-24T06:31:30.461Z,57.20
2022-11-24T06:34:00.830Z,59.40
2022-11-24T06:36:28.907Z,58.80
2022-11-24T06:38:57.152Z,59.20
2022-11-24T06:41:25.105Z,54.30
2022-11-24T06:43:53.165Z,57.40
2022-11-24T06:46:21.253Z,57.70
2022-11-24T06:48:52.899Z,56.90
2022-11-24T06:51:20.896Z,54.90
2022-11-24T06:53:49.005Z,54.00
2022-11-24T06:56:19.877Z,54.90
2022-11-24T06:58:50.287Z,56.00
2022-11-24T07:01:21.269Z,53.50
2022-11-24T07:03:50.370Z,54.40
2022-11-24T07:06:19.694Z,55.20
2022-11-24T07:08:47.920Z,56.70
2022-11-24T07:11:18.985Z,57.90
2022-11-24T07:13:47.615Z,52.50
2022-11-24T07:16:23.454Z,55.90
2022-11-24T07:18:53.493Z,57.60
2022-11-24T07:21:23.872Z,59.60
2022-11-24T07:23:54.847Z,59.80
2022-11-24T07:26:23.839Z,59.40
2022-11-24T07:28:53.083Z,62.70
2022-11-24T07:31:25.490Z,60.60
2022-11-24T07:33:55.286Z,61.50
2022-11-24T07:36:24.123Z,58.50
2022-11-24T07:38:52.384Z,59.60
2022-11-24T07:41:22.565Z,59.90
2022-11-24T07:43:51.698Z,59.50
2022-11-24T07:46:20.367Z,58.10
2022-11-24T07:48:48.672Z,58.10
2022-11-24T07:51:16.760Z,57.10
2022-11-24T07:53:46.024Z,59.40
2022-11-24T07:56:14.154Z,57.70
2022-11-24T07:58:42.202Z,55.50
2022-11-24T08:01:18.203Z,57.40
2022-11-24T08:03:47.898Z,56.50
2022-11-24T08:06:28.712Z,56.70
2022-11-24T08:09:00.740Z,56.10
2022-11-24T08:11:31.602Z,54.60
2022-11-24T08:14:00.192Z,51.40
2022-11-24T08:16:28.417Z,54.80
2022-11-24T08:18:56.639Z,57.20
2022-11-24T08:21:25.801Z,55.70
2022-11-24T08:23:55.508Z,57.60
2022-11-24T08:26:25.121Z,59.30
2022-11-24T08:28:56.096Z,58.00
2022-11-24T08:31:27.577Z,58.80
2022-11-24T08:33:56.158Z,60.90
2022-11-24T08:36:24.297Z,59.40
2022-11-24T08:38:57.826Z,60.10
2022-11-24T08:41:27.410Z,62.30
2022-11-24T08:43:56.224Z,57.00
2022-11-24T08:46:24.644Z,59.00
2022-11-24T08:48:54.506Z,57.90
2022-11-24T08:51:26.247Z,63.80
2022-11-24T08:53:56.896Z,60.90
2022-11-24T08:56:26.972Z,58.60
2022-11-24T08:58:56.353Z,58.80
2022-11-24T09:01:25.810Z,58.30
2022-11-24T09:03:54.502Z,62.20
2022-11-24T09:06:26.183Z,58.00
2022-11-24T09:08:55.835Z,57.50
2022-11-24T09:11:25.779Z,60.00
2022-11-24T09:13:56.132Z,60.20
2022-11-24T09:16:29.188Z,58.90
2022-11-24T09:19:06.194Z,56.30
2022-11-24T09:21:38.225Z,59.70
2022-11-24T09:24:08.361Z,59.30
2022-11-24T09:26:44.621Z,59.90
2022-11-24T09:29:17.379Z,62.80
2022-11-24T09:31:46.502Z,60.30
2022-11-24T09:34:16.041Z,61.70
2022-11-24T09:36:44.442Z,64.40
2022-11-24T09:39:12.655Z,64.80
2022-11-24T09:42:00.500Z,59.30
2022-11-24T09:44:59.612Z,61.90
2022-11-24T09:47:46.693Z,65.30
2022-11-24T09:50:20.021Z,69.90
2022-11-24T09:53:03.746Z,63.70
2022-11-24T09:56:00.520Z,58.00
2022-11-24T09:58:51.352Z,59.80
2022-11-24T10:01:23.170Z,58.70
2022-11-24T10:03:53.470Z,60.30
2022-11-24T10:06:26.287Z,59.90
2022-11-24T10:09:37.674Z,57.60
2022-11-24T10:12:16.838Z,58.40
2022-11-24T10:15:01.263Z,59.50
2022-11-24T10:17:47.999Z,60.90
2022-11-24T10:20:44.745Z,60.70
2022-11-24T10:23:39.840Z,57.30
2022-11-24T10:26:15.915Z,58.90
2022-11-24T10:29:13.955Z,59.60
2022-11-24T10:31:44.001Z,62.40
2022-11-24T10:34:25.915Z,63.00
2022-11-24T10:37:12.582Z,65.50
2022-11-24T10:40:04.060Z,63.30
2022-11-24T10:42:37.014Z,71.60
2022-11-24T10:45:13.825Z,71.50
2022-11-24T10:47:44.145Z,63.00
2022-11-24T10:50:22.756Z,67.00
2022-11-24T10:52:56.552Z,65.40
2022-11-24T10:55:24.774Z,67.70
2022-11-24T10:57:53.509Z,65.90
2022-11-24T11:00:22.243Z,65.40
2022-11-24T11:03:12.367Z,65.70
2022-11-24T11:05:43.738Z,67.00
2022-11-24T11:08:14.861Z,70.20
2022-11-24T11:10:45.740Z,65.10
2022-11-24T11:13:25.885Z,66.10
2022-11-24T11:15:54.941Z,66.90
2022-11-24T11:18:30.295Z,67.60
2022-11-24T11:21:02.623Z,67.80
2022-11-24T11:23:34.923Z,65.90
2022-11-24T11:26:37.190Z,66.60
2022-11-24T11:34:50.384Z,63.50
2022-11-24T11:37:20.039Z,62.30
2022-11-24T11:39:50.780Z,64.50
2022-11-24T11:45:35.368Z,67.50
2022-11-24T11:48:03.571Z,63.50
2022-11-24T11:51:06.703Z,64.80
2022-11-24T11:54:08.731Z,69.00
2022-11-24T11:56:45.720Z,68.30
2022-11-24T11:59:47.383Z,68.60
2022-11-24T12:02:36.724Z,66.90
2022-11-24T12:05:29.607Z,67.00
2022-11-24T12:08:10.786Z,65.60
2022-11-24T12:10:50.756Z,68.80
2022-11-24T12:13:38.051Z,69.60
2022-11-24T12:16:29.937Z,65.80
2022-11-24T12:19:10.936Z,66.80
2022-11-24T12:22:10.645Z,69.30
2022-11-24T12:24:59.682Z,71.50
2022-11-24T12:27:40.765Z,71.90
2022-11-24T12:30:13.560Z,67.40
2022-11-24T12:32:47.775Z,68.50
2022-11-24T12:35:18.946Z,70.10
2022-11-24T12:37:59.001Z,73.00
2022-11-24T12:40:46.378Z,73.80
2022-11-24T12:43:34.541Z,72.20
2022-11-24T12:46:38.433Z,67.60
2022-11-24T12:49:26.817Z,68.50
2022-11-24T12:52:21.693Z,68.40
2022-11-24T12:54:51.441Z,70.70
2022-11-24T12:57:34.691Z,67.80
2022-11-24T13:00:24.065Z,67.70
2022-11-24T13:03:23.371Z,69.00
2022-11-24T13:06:15.088Z,70.30
2022-11-24T13:08:44.693Z,70.40
2022-11-24T13:11:48.890Z,70.40
2022-11-24T13:14:23.688Z,70.90
2022-11-24T13:19:41.072Z,72.80
2022-11-24T13:22:09.524Z,71.80
2022-11-24T13:24:40.159Z,68.90
2022-11-24T13:27:24.411Z,70.60
2022-11-24T13:29:53.624Z,73.80
2022-11-24T13:32:24.720Z,76.00
2022-11-24T13:34:55.565Z,75.90
2022-11-24T13:37:26.842Z,73.50
2022-11-24T13:40:14.448Z,75.20
2022-11-24T13:43:01.492Z,78.70
2022-11-24T13:45:39.364Z,77.50
2022-11-24T13:48:20.677Z,76.30
2022-11-24T13:50:55.025Z,71.90
2022-11-24T13:53:35.371Z,73.10
2022-11-24T13:56:09.945Z,73.90
2022-11-24T13:58:43.679Z,75.10
2022-11-24T14:01:32.524Z,75.90
2022-11-24T14:04:31.970Z,69.40
2022-11-24T14:07:12.750Z,70.20
2022-11-24T14:09:44.836Z,70.80
2022-11-24T14:12:19.394Z,70.10
2022-11-24T14:14:50.028Z,71.20
2022-11-24T14:17:24.101Z,68.00
2022-11-24T14:19:54.400Z,68.50
2022-11-24T14:22:37.523Z,68.30
2022-11-24T14:25:07.841Z,68.70
2022-11-24T14:27:39.220Z,75.70
2022-11-24T14:30:12.553Z,72.40
2022-11-24T14:32:53.720Z,73.60
2022-11-24T14:35:35.203Z,77.00
2022-11-24T14:38:06.963Z,78.30
2022-11-24T14:40:55.687Z,76.30
2022-11-24T14:43:33.137Z,70.10
2022-11-24T14:46:10.229Z,71.20
2022-11-24T14:48:51.980Z,71.50
2022-11-24T14:51:26.801Z,71.90
2022-11-24T14:54:03.072Z,71.90
2022-11-24T14:56:39.409Z,66.70
2022-11-24T14:59:26.450Z,67.20
2022-11-24T15:01:55.570Z,70.30
2022-11-24T15:05:00.719Z,74.90
2022-11-24T15:07:27.721Z,74.90
2022-11-24T15:10:01.609Z,69.80
2022-11-24T15:12:42.063Z,69.10
2022-11-24T15:15:13.887Z,70.60
2022-11-24T15:17:52.234Z,67.80
2022-11-24T15:20:32.941Z,70.50
2022-11-24T15:23:25.556Z,66.90
2022-11-24T15:25:57.867Z,70.70
2022-11-24T15:28:26.710Z,71.00
2022-11-24T15:31:16.535Z,74.70
2022-11-24T15:33:45.162Z,79.40
2022-11-24T15:36:15.253Z,72.20
2022-11-24T15:38:43.424Z,74.90
2022-11-24T15:41:25.379Z,72.30
2022-11-24T15:43:59.190Z,68.00
2022-11-24T15:46:29.741Z,70.30
2022-11-24T15:48:58.310Z,67.80
2022-11-24T15:51:28.069Z,70.50
2022-11-24T15:54:01.084Z,72.60
2022-11-24T15:56:35.259Z,73.90
2022-11-24T15:59:04.664Z,70.20
2022-11-24T16:01:36.262Z,73.50
2022-11-24T16:04:04.968Z,71.30
2022-11-24T16:06:33.238Z,74.20
2022-11-24T16:09:01.557Z,74.50
2022-11-24T16:11:29.797Z,69.90
2022-11-24T16:13:57.988Z,72.20
2022-11-24T16:16:26.196Z,71.90
2022-11-24T16:18:54.286Z,73.70
2022-11-24T16:21:23.346Z,70.50
2022-11-24T16:23:51.909Z,69.10
2022-11-24T16:26:20.457Z,70.70
2022-11-24T16:28:48.541Z,71.40
2022-11-24T16:31:18.127Z,72.60
2022-11-24T16:33:46.683Z,67.20
2022-11-24T16:36:15.823Z,68.50
2022-11-24T16:38:44.026Z,68.90
2022-11-24T16:41:13.312Z,70.00
2022-11-24T16:43:41.980Z,70.60
2022-11-24T16:46:19.895Z,68.60
2022-11-24T16:48:51.449Z,69.60
2022-11-24T16:51:22.678Z,69.30
2022-11-24T16:54:02.704Z,71.20
2022-11-24T16:56:32.121Z,68.20
2022-11-24T16:59:01.344Z,68.70
2022-11-24T17:01:30.498Z,68.50
2022-11-24T17:04:00.097Z,68.10
2022-11-24T17:06:29.773Z,70.60
2022-11-24T17:08:58.377Z,68.10
2022-11-24T17:11:30.000Z,65.00
2022-11-24T17:13:59.178Z,70.30
2022-11-24T17:16:27.818Z,76.20
2022-11-24T17:18:58.839Z,78.70
2022-11-24T17:21:28.867Z,72.60
2022-11-24T17:24:00.846Z,75.20
2022-11-24T17:26:29.578Z,76.10
2022-11-24T17:28:58.393Z,78.20
2022-11-24T17:31:30.876Z,74.70
2022-11-24T17:34:00.412Z,71.10
2022-11-24T17:36:32.601Z,71.90
2022-11-24T17:39:04.715Z,73.30
2022-11-24T17:41:34.311Z,73.60
2022-11-24T17:44:03.039Z,71.60
2022-11-24T17:46:31.801Z,76.20
2022-11-24T17:49:00.474Z,76.80
2022-11-24T17:51:29.114Z,76.70
2022-11-24T17:53:57.652Z,75.70
2022-11-24T17:56:27.494Z,76.10
2022-11-24T17:58:58.707Z,75.90
2022-11-24T18:01:32.411Z,75.60
2022-11-24T18:04:01.183Z,77.40
2022-11-24T18:06:29.696Z,71.20
2022-11-24T18:08:59.818Z,71.00
2022-11-24T18:11:32.064Z,74.10
2022-11-24T18:14:04.136Z,72.90
2022-11-24T18:16:35.106Z,74.10
2022-11-24T18:19:09.817Z,72.60
2022-11-24T18:21:44.924Z,75.10
2022-11-24T18:24:14.002Z,72.60
2022-11-24T18:26:43.553Z,74.90
2022-11-24T18:29:12.360Z,71.40
2022-11-24T18:31:41.579Z,73.60
2022-11-24T18:34:10.500Z,74.10
2022-11-24T18:36:39.631Z,78.50
2022-11-24T18:39:10.889Z,74.40
2022-11-24T18:41:40.471Z,74.90
2022-11-24T18:44:12.249Z,83.10
2022-11-24T18:46:41.510Z,85.00
2022-11-24T18:49:11.258Z,91.60
2022-11-24T18:51:40.743Z,83.20
2022-11-24T18:54:09.404Z,81.50
2022-11-24T18:56:39.068Z,81.70
2022-11-24T18:59:10.379Z,83.10
2022-11-24T19:01:40.401Z,84.10
2022-11-24T19:04:09.881Z,81.90
2022-11-24T19:06:39.613Z,81.40
2022-11-24T19:09:21.920Z,84.60
2022-11-24T19:11:55.500Z,84.30
2022-11-24T19:14:31.061Z,84.60
2022-11-24T19:20:17.003Z,90.70
2022-11-24T19:28:36.945Z,94.10
2022-11-24T19:31:38.994Z,93.00
2022-11-24T19:34:13.678Z,96.20
2022-11-24T19:36:45.475Z,96.10
2022-11-24T19:39:15.831Z,91.10
2022-11-24T19:41:44.584Z,90.70
2022-11-24T19:44:22.233Z,95.60
2022-11-24T19:46:54.583Z,96.10
2022-11-24T19:49:25.725Z,92.30
2022-11-24T19:51:55.624Z,86.30
2022-11-24T19:54:25.401Z,82.50
2022-11-24T19:56:55.602Z,84.30
2022-11-24T19:59:27.427Z,83.30
2022-11-24T20:01:58.259Z,80.30
2022-11-24T20:04:33.592Z,81.70
2022-11-24T20:07:03.296Z,83.60
2022-11-24T20:09:50.837Z,83.50
2022-11-24T20:12:22.455Z,80.30
2022-11-24T20:14:53.314Z,81.70
2022-11-24T20:17:28.133Z,79.20
2022-11-24T20:20:05.001Z,81.50
2022-11-24T20:22:38.456Z,84.10
2022-11-24T20:25:08.241Z,80.80
2022-11-24T20:27:36.935Z,90.60
2022-11-24T20:30:06.424Z,88.70
2022-11-24T20:32:34.993Z,101.00
2022-11-24T20:35:04.563Z,89.40
2022-11-24T20:37:34.767Z,108.40
2022-11-24T20:40:04.424Z,104.60
2022-11-24T20:42:32.889Z,105.00
2022-11-24T20:45:01.047Z,105.40
2022-11-24T20:47:30.932Z,93.50
2022-11-24T20:49:59.032Z,88.60
2022-11-24T20:52:27.985Z,88.10
2022-11-24T20:54:57.381Z,91.10
2022-11-24T20:57:26.514Z,89.60
2022-11-24T20:59:58.376Z,84.60
2022-11-24T21:02:34.496Z,87.50
2022-11-24T21:05:14.219Z,91.90
2022-11-24T21:07:45.169Z,97.10
2022-11-24T21:10:13.857Z,92.60
2022-11-24T21:12:42.615Z,93.80
2022-11-24T21:15:11.374Z,96.80
2022-11-24T21:17:39.494Z,97.10
2022-11-24T21:20:10.750Z,95.10
2022-11-24T21:22:40.367Z,88.90
2022-11-24T21:25:09.224Z,92.00
2022-11-24T21:27:38.397Z,94.60
2022-11-24T21:30:07.551Z,89.90
2022-11-24T21:32:35.865Z,83.40
2022-11-24T21:35:05.160Z,86.00
2022-11-24T21:37:35.749Z,82.30
2022-11-24T21:40:06.007Z,83.80
2022-11-24T21:42:34.382Z,81.10
2022-11-24T21:45:02.650Z,76.50
2022-11-24T21:47:31.014Z,79.40
2022-11-24T21:49:59.086Z,80.90
2022-11-24T21:52:27.208Z,79.80
2022-11-24T21:54:55.403Z,77.90
2022-11-24T21:57:23.602Z,76.10
2022-11-24T21:59:52.484Z,78.70
2022-11-24T22:02:20.999Z,78.30
2022-11-24T22:04:50.026Z,83.40
2022-11-24T22:07:18.320Z,79.10
2022-11-24T22:09:46.734Z,86.00
2022-11-24T22:12:14.884Z,84.40
2022-11-24T22:14:43.555Z,87.10
2022-11-24T22:17:15.336Z,83.90
2022-11-24T22:19:43.280Z,84.00
2022-11-24T22:22:12.333Z,84.60
2022-11-24T22:24:41.245Z,87.30
2022-11-24T22:27:10.063Z,84.90
2022-11-24T22:29:38.406Z,83.60
2022-11-24T22:32:07.262Z,83.40
2022-11-24T22:34:35.845Z,84.70
2022-11-24T22:37:04.202Z,87.80
2022-11-24T22:39:32.358Z,85.10
2022-11-24T22:42:00.405Z,83.50
2022-11-24T22:44:29.007Z,82.80
2022-11-24T22:46:57.972Z,86.00
2022-11-24T22:49:26.954Z,83.90
2022-11-24T22:51:54.988Z,79.80
2022-11-24T22:54:23.235Z,81.80
2022-11-24T22:56:51.477Z,84.00
2022-11-24T22:59:20.123Z,83.40
2022-11-24T23:01:49.846Z,78.20
2022-11-24T23:04:17.973Z,83.90
2022-11-24T23:06:46.316Z,84.80
2022-11-24T23:09:14.725Z,82.40
2022-11-24T23:11:42.843Z,79.50
2022-11-24T23:14:15.561Z,79.40
2022-11-24T23:16:44.222Z,79.30
2022-11-24T23:19:12.722Z,77.90
2022-11-24T23:21:40.999Z,74.20
2022-11-24T23:24:10.761Z,75.70
2022-11-24T23:26:40.874Z,74.50
2022-11-24T23:29:10.724Z,76.20
2022-11-24T23:31:40.243Z,73.10
2022-11-24T23:34:09.026Z,74.30
2022-11-24T23:36:37.764Z,73.60
2022-11-24T23:39:08.736Z,66.70
2022-11-24T23:41:36.784Z,67.90
2022-11-24T23:44:04.826Z,66.60
2022-11-24T23:46:33.548Z,67.00
2022-11-24T23:49:01.880Z,69.70
2022-11-24T23:51:31.913Z,70.40
2022-11-24T23:54:00.769Z,66.30
2022-11-24T23:56:32.571Z,66.50
2022-11-24T23:59:02.497Z,66.90
